createdAt,value
2023-04-20T00:00:21.569Z,6.40
2023-04-20T00:01:21.564Z,7.40
2023-04-20T00:02:21.808Z,6.60
2023-04-20T00:03:22.029Z,7.10
2023-04-20T00:04:21.521Z,6.10
2023-04-20T00:05:21.542Z,8.50
2023-04-20T00:06:21.519Z,7.50
2023-04-20T00:07:21.487Z,6.20
2023-04-20T00:08:21.478Z,7.30
2023-04-20T00:09:21.459Z,8.40
2023-04-20T00:10:21.460Z,6.90
2023-04-20T00:11:21.462Z,6.90
2023-04-20T00:12:21.427Z,6.30
2023-04-20T00:13:21.400Z,7.30
2023-04-20T00:14:21.389Z,6.60
2023-04-20T00:15:21.397Z,6.80
2023-04-20T00:16:21.388Z,6.70
2023-04-20T00:17:21.351Z,6.70
2023-04-20T00:18:21.341Z,5.80
2023-04-20T00:19:21.344Z,6.70
2023-04-20T00:20:21.331Z,6.10
2023-04-20T00:21:21.303Z,6.80
2023-04-20T00:22:21.312Z,8.10
2023-04-20T00:23:21.291Z,6.30
2023-04-20T00:24:21.262Z,7.90
2023-04-20T00:25:21.286Z,5.90
2023-04-20T00:26:21.257Z,6.50
2023-04-20T00:27:21.245Z,6.90
2023-04-20T00:28:21.216Z,8.80
2023-04-20T00:29:21.195Z,7.00
2023-04-20T00:30:21.185Z,7.00
2023-04-20T00:31:21.283Z,6.10
2023-04-20T00:32:21.206Z,8.00
2023-04-20T00:33:21.147Z,7.10
2023-04-20T00:34:21.131Z,8.50
2023-04-20T00:35:21.118Z,8.20
2023-04-20T00:36:21.122Z,9.40
2023-04-20T00:37:21.094Z,6.70
2023-04-20T00:38:21.085Z,7.00
2023-04-20T00:39:21.070Z,9.20
2023-04-20T00:40:21.064Z,8.90
2023-04-20T00:41:21.066Z,8.00
2023-04-20T00:42:21.028Z,5.70
2023-04-20T00:43:21.045Z,9.00
2023-04-20T00:44:21.006Z,8.60
2023-04-20T00:45:20.988Z,8.10
2023-04-20T00:46:21.076Z,8.30
2023-04-20T00:47:20.985Z,9.60
2023-04-20T00:48:20.955Z,8.10
2023-04-20T00:49:20.935Z,6.40
2023-04-20T00:50:20.926Z,6.80
2023-04-20T00:51:20.927Z,7.20
2023-04-20T00:52:20.899Z,7.80
2023-04-20T00:53:20.886Z,8.00
2023-04-20T00:54:20.873Z,6.90
2023-04-20T00:55:20.875Z,7.80
2023-04-20T00:56:20.861Z,7.00
2023-04-20T00:57:20.837Z,7.20
2023-04-20T00:58:20.825Z,7.50
2023-04-20T00:59:20.837Z,6.50
2023-04-20T01:00:20.842Z,7.50
2023-04-20T01:01:20.786Z,7.80
2023-04-20T01:02:20.811Z,7.20
2023-04-20T01:03:20.865Z,7.40
2023-04-20T01:04:20.842Z,7.10
2023-04-20T01:05:20.752Z,7.20
2023-04-20T01:06:20.741Z,6.80
2023-04-20T01:07:20.710Z,6.80
2023-04-20T01:08:20.697Z,7.30
2023-04-20T01:09:20.703Z,6.90
2023-04-20T01:10:20.671Z,6.60
2023-04-20T01:11:20.668Z,8.30
2023-04-20T01:12:20.663Z,7.70
2023-04-20T01:13:20.633Z,7.70
2023-04-20T01:14:20.630Z,7.90
2023-04-20T01:15:20.628Z,6.90
2023-04-20T01:16:20.663Z,6.00
2023-04-20T01:17:20.653Z,7.40
2023-04-20T01:18:20.571Z,5.80
2023-04-20T01:19:20.613Z,7.80
2023-04-20T01:20:20.563Z,7.20
2023-04-20T01:21:20.546Z,7.00
2023-04-20T01:22:20.522Z,8.90
2023-04-20T01:23:20.504Z,7.50
2023-04-20T01:24:20.500Z,7.00
2023-04-20T01:25:20.491Z,7.50
2023-04-20T01:26:20.483Z,8.10
2023-04-20T01:27:20.496Z,7.90
2023-04-20T01:28:20.441Z,7.80
2023-04-20T01:29:20.431Z,8.00
2023-04-20T01:30:20.444Z,7.20
2023-04-20T01:31:20.456Z,7.60
2023-04-20T01:32:20.400Z,7.20
2023-04-20T01:33:20.382Z,8.80
2023-04-20T01:34:20.364Z,8.20
2023-04-20T01:35:20.360Z,8.40
2023-04-20T01:36:20.361Z,7.60
2023-04-20T01:37:20.331Z,7.70
2023-04-20T01:38:20.312Z,7.70
2023-04-20T01:39:20.453Z,7.40
2023-04-20T01:40:20.301Z,5.80
2023-04-20T01:41:20.292Z,7.10
2023-04-20T01:42:20.273Z,6.70
2023-04-20T01:43:20.253Z,6.90
2023-04-20T01:44:20.241Z,8.00
2023-04-20T01:45:20.228Z,6.80
2023-04-20T01:46:20.282Z,5.70
2023-04-20T01:47:20.225Z,8.80
2023-04-20T01:48:20.197Z,8.10
2023-04-20T01:49:20.180Z,7.50
2023-04-20T01:50:20.179Z,8.30
2023-04-20T01:51:20.184Z,12.30
2023-04-20T01:52:20.139Z,6.30
2023-04-20T01:53:20.130Z,7.60
2023-04-20T01:54:20.111Z,9.00
2023-04-20T01:55:20.300Z,7.60
2023-04-20T01:56:20.119Z,5.80
2023-04-20T01:57:20.074Z,9.10
2023-04-20T01:58:20.063Z,9.30
2023-04-20T01:59:20.087Z,7.30
2023-04-20T02:00:20.044Z,7.70
2023-04-20T02:01:20.081Z,7.80
2023-04-20T02:02:20.144Z,9.20
2023-04-20T02:03:20.186Z,7.90
2023-04-20T02:04:19.986Z,7.30
2023-04-20T02:05:19.974Z,7.30
2023-04-20T02:06:20.103Z,7.00
2023-04-20T02:07:19.963Z,6.30
2023-04-20T02:08:19.937Z,6.80
2023-04-20T02:09:19.946Z,7.30
2023-04-20T02:10:19.914Z,6.70
2023-04-20T02:11:19.934Z,7.10
2023-04-20T02:12:19.891Z,7.70
2023-04-20T02:13:19.881Z,8.10
2023-04-20T02:14:19.852Z,7.60
2023-04-20T02:15:19.906Z,9.00
2023-04-20T02:16:19.848Z,8.60
2023-04-20T02:17:19.870Z,6.90
2023-04-20T02:18:19.804Z,6.60
2023-04-20T02:19:19.883Z,8.80
2023-04-20T02:20:19.791Z,7.40
2023-04-20T02:21:19.753Z,9.20
2023-04-20T02:22:19.756Z,6.60
2023-04-20T02:23:19.728Z,7.90
2023-04-20T02:24:19.718Z,6.10
2023-04-20T02:25:19.704Z,6.70
2023-04-20T02:26:19.691Z,8.40
2023-04-20T02:27:19.691Z,6.20
2023-04-20T02:28:19.662Z,8.70
2023-04-20T02:29:19.886Z,7.50
2023-04-20T02:30:19.650Z,7.70
2023-04-20T02:31:19.675Z,8.20
2023-04-20T02:32:19.651Z,7.10
2023-04-20T02:33:19.597Z,7.80
2023-04-20T02:34:19.579Z,8.70
2023-04-20T02:35:19.589Z,8.60
2023-04-20T02:36:19.566Z,6.70
2023-04-20T02:37:19.564Z,7.40
2023-04-20T02:38:19.536Z,6.20
2023-04-20T02:39:19.786Z,8.90
2023-04-20T02:40:19.517Z,7.00
2023-04-20T02:41:19.500Z,9.20
2023-04-20T02:42:19.493Z,7.40
2023-04-20T02:43:19.464Z,6.60
2023-04-20T02:44:19.451Z,7.40
2023-04-20T02:45:19.434Z,6.70
2023-04-20T02:46:19.433Z,6.90
2023-04-20T02:47:19.504Z,7.30
2023-04-20T02:48:19.404Z,8.10
2023-04-20T02:49:19.580Z,8.40
2023-04-20T02:50:19.376Z,8.50
2023-04-20T02:51:19.388Z,7.40
2023-04-20T02:52:19.369Z,8.60
2023-04-20T02:53:19.335Z,6.30
2023-04-20T02:54:19.331Z,8.80
2023-04-20T02:55:19.312Z,8.40
2023-04-20T02:56:19.298Z,9.60
2023-04-20T02:57:19.299Z,7.50
2023-04-20T02:58:19.285Z,7.20
2023-04-20T02:59:19.522Z,8.70
2023-04-20T03:00:19.246Z,7.50
2023-04-20T03:01:19.232Z,8.70
2023-04-20T03:02:19.371Z,7.60
2023-04-20T03:03:19.337Z,11.00
2023-04-20T03:04:19.311Z,7.10
2023-04-20T03:05:19.181Z,7.10
2023-04-20T03:06:19.176Z,9.60
2023-04-20T03:07:19.312Z,8.40
2023-04-20T03:08:19.141Z,7.50
2023-04-20T03:09:19.286Z,8.30
2023-04-20T03:10:19.115Z,8.60
2023-04-20T03:11:19.108Z,6.50
2023-04-20T03:12:19.124Z,8.30
2023-04-20T03:13:19.076Z,8.00
2023-04-20T03:14:19.065Z,9.00
2023-04-20T03:15:19.058Z,8.60
2023-04-20T03:16:19.059Z,7.50
2023-04-20T03:17:19.023Z,8.20
2023-04-20T03:18:19.030Z,6.80
2023-04-20T03:19:19.137Z,7.40
2023-04-20T03:20:18.986Z,7.80
2023-04-20T03:21:18.968Z,9.00
2023-04-20T03:22:18.953Z,7.20
2023-04-20T03:23:18.978Z,8.00
2023-04-20T03:24:18.929Z,7.70
2023-04-20T03:25:18.918Z,7.30
2023-04-20T03:26:18.902Z,7.10
2023-04-20T03:27:18.888Z,8.10
2023-04-20T03:28:18.890Z,6.60
2023-04-20T03:29:19.030Z,6.50
2023-04-20T03:30:18.846Z,7.40
2023-04-20T03:31:18.850Z,7.90
2023-04-20T03:32:18.824Z,7.50
2023-04-20T03:33:18.824Z,7.50
2023-04-20T03:34:18.791Z,7.70
2023-04-20T03:35:18.800Z,7.40
2023-04-20T03:36:18.778Z,6.40
2023-04-20T03:37:18.787Z,7.50
2023-04-20T03:38:18.752Z,7.60
2023-04-20T03:39:18.907Z,7.40
2023-04-20T03:40:18.733Z,9.60
2023-04-20T03:41:18.715Z,9.50
2023-04-20T03:42:18.684Z,8.50
2023-04-20T03:43:18.688Z,9.10
2023-04-20T03:44:18.657Z,8.00
2023-04-20T03:45:18.649Z,8.20
2023-04-20T03:46:18.741Z,8.60
2023-04-20T03:47:18.631Z,7.60
2023-04-20T03:48:18.618Z,8.50
2023-04-20T03:49:18.748Z,8.40
2023-04-20T03:50:18.583Z,9.40
2023-04-20T03:51:18.571Z,8.50
2023-04-20T03:52:18.563Z,8.90
2023-04-20T03:53:18.575Z,8.40
2023-04-20T03:54:18.546Z,8.50
2023-04-20T03:55:18.532Z,9.30
2023-04-20T03:56:18.505Z,9.60
2023-04-20T03:57:18.488Z,9.80
2023-04-20T03:58:18.486Z,9.30
2023-04-20T03:59:18.633Z,11.80
2023-04-20T04:00:18.465Z,8.50
2023-04-20T04:01:18.436Z,8.00
2023-04-20T04:02:18.562Z,8.60
2023-04-20T04:03:18.710Z,12.30
2023-04-20T04:04:19.011Z,8.30
2023-04-20T04:05:18.409Z,9.40
2023-04-20T04:06:18.363Z,10.00
2023-04-20T04:07:18.358Z,10.80
2023-04-20T04:08:18.353Z,8.60
2023-04-20T04:09:18.577Z,8.10
2023-04-20T04:10:18.405Z,10.60
2023-04-20T04:11:18.324Z,8.00
2023-04-20T04:12:18.293Z,9.40
2023-04-20T04:13:18.289Z,10.90
2023-04-20T04:14:18.263Z,9.30
2023-04-20T04:15:18.248Z,14.00
2023-04-20T04:16:18.238Z,18.20
2023-04-20T04:17:18.225Z,25.90
2023-04-20T04:18:18.236Z,28.50
2023-04-20T04:19:18.524Z,17.90
2023-04-20T04:20:18.180Z,15.90
2023-04-20T04:21:18.185Z,15.10
2023-04-20T04:22:18.156Z,12.50
2023-04-20T04:23:18.164Z,14.70
2023-04-20T04:24:18.140Z,32.40
2023-04-20T04:25:18.127Z,38.60
2023-04-20T04:26:18.102Z,34.30
2023-04-20T04:27:18.113Z,20.00
2023-04-20T04:28:18.108Z,14.80
2023-04-20T04:29:18.471Z,8.90
2023-04-20T04:30:18.049Z,11.10
2023-04-20T04:31:18.063Z,11.00
2023-04-20T04:32:18.028Z,10.40
2023-04-20T04:33:18.035Z,10.00
2023-04-20T04:34:18.031Z,10.60
2023-04-20T04:35:18.039Z,12.00
2023-04-20T04:36:17.980Z,10.20
2023-04-20T04:37:17.978Z,11.70
2023-04-20T04:38:17.978Z,9.20
2023-04-20T04:39:18.208Z,12.50
2023-04-20T04:40:17.927Z,12.50
2023-04-20T04:41:17.911Z,10.20
2023-04-20T04:42:17.906Z,10.00
2023-04-20T04:43:17.920Z,8.80
2023-04-20T04:44:17.878Z,9.20
2023-04-20T04:45:17.864Z,9.60
2023-04-20T04:46:17.915Z,9.10
2023-04-20T04:47:17.836Z,9.30
2023-04-20T04:48:17.832Z,9.60
2023-04-20T04:49:18.085Z,10.70
2023-04-20T04:50:17.832Z,10.90
2023-04-20T04:51:17.788Z,10.60
2023-04-20T04:52:17.763Z,10.40
2023-04-20T04:53:17.773Z,9.10
2023-04-20T04:54:17.739Z,9.00
2023-04-20T04:55:17.733Z,10.60
2023-04-20T04:56:17.709Z,11.50
2023-04-20T04:57:17.724Z,12.00
2023-04-20T04:58:17.685Z,10.00
2023-04-20T04:59:18.048Z,10.30
2023-04-20T05:00:17.721Z,9.20
2023-04-20T05:01:17.649Z,10.50
2023-04-20T05:02:17.682Z,9.00
2023-04-20T05:03:17.819Z,9.20
2023-04-20T05:04:17.663Z,8.70
2023-04-20T05:05:17.588Z,10.40
2023-04-20T05:06:17.575Z,8.60
2023-04-20T05:07:17.561Z,8.70
2023-04-20T05:08:17.553Z,11.30
2023-04-20T05:09:17.792Z,9.70
2023-04-20T05:10:17.528Z,11.00
2023-04-20T05:11:17.509Z,9.90
2023-04-20T05:12:17.513Z,10.40
2023-04-20T05:13:17.485Z,9.00
2023-04-20T05:14:17.494Z,9.00
2023-04-20T05:15:17.483Z,9.20
2023-04-20T05:16:17.513Z,9.10
2023-04-20T05:17:17.516Z,8.30
2023-04-20T05:18:17.418Z,10.70
2023-04-20T05:19:17.643Z,10.40
2023-04-20T05:20:17.389Z,10.90
2023-04-20T05:21:17.389Z,9.90
2023-04-20T05:22:17.368Z,10.00
2023-04-20T05:23:17.364Z,9.30
2023-04-20T05:24:17.351Z,8.40
2023-04-20T05:25:17.335Z,9.10
2023-04-20T05:26:17.315Z,9.30
2023-04-20T05:27:17.291Z,9.70
2023-04-20T05:28:17.279Z,9.10
2023-04-20T05:29:17.583Z,10.10
2023-04-20T05:30:21.471Z,9.60
2023-04-20T05:31:17.276Z,8.90
2023-04-20T05:32:17.230Z,8.90
2023-04-20T05:33:17.268Z,10.30
2023-04-20T05:34:17.218Z,10.60
2023-04-20T05:35:17.191Z,8.40
2023-04-20T05:36:17.186Z,8.90
2023-04-20T05:37:17.174Z,11.90
2023-04-20T05:38:17.174Z,10.20
2023-04-20T05:39:17.382Z,8.90
2023-04-20T05:40:17.120Z,9.40
2023-04-20T05:41:17.118Z,10.40
2023-04-20T05:42:17.098Z,9.20
2023-04-20T05:43:17.160Z,11.60
2023-04-20T05:44:17.115Z,9.70
2023-04-20T05:45:17.061Z,10.70
2023-04-20T05:46:17.103Z,10.20
2023-04-20T05:47:17.149Z,9.10
2023-04-20T05:48:17.016Z,9.70
2023-04-20T05:49:17.223Z,8.10
2023-04-20T05:50:16.998Z,10.10
2023-04-20T05:51:16.987Z,10.00
2023-04-20T05:52:16.962Z,9.50
2023-04-20T05:53:16.966Z,9.50
2023-04-20T05:54:16.959Z,10.00
2023-04-20T05:55:18.937Z,9.80
2023-04-20T05:56:16.969Z,8.40
2023-04-20T05:57:16.901Z,7.90
2023-04-20T05:58:16.912Z,10.60
2023-04-20T05:59:17.103Z,8.20
2023-04-20T06:00:16.886Z,8.20
2023-04-20T06:01:16.852Z,8.60
2023-04-20T06:02:16.962Z,9.80
2023-04-20T06:03:17.119Z,8.50
2023-04-20T06:04:17.112Z,7.90
2023-04-20T06:05:16.833Z,11.30
2023-04-20T06:06:16.945Z,9.00
2023-04-20T06:07:16.781Z,9.90
2023-04-20T06:08:16.753Z,9.10
2023-04-20T06:09:16.941Z,9.10
2023-04-20T06:10:16.768Z,8.50
2023-04-20T06:11:16.717Z,8.90
2023-04-20T06:12:16.712Z,8.20
2023-04-20T06:13:16.695Z,10.20
2023-04-20T06:14:17.234Z,8.70
2023-04-20T06:15:16.719Z,10.90
2023-04-20T06:16:16.732Z,10.30
2023-04-20T06:17:16.645Z,8.90
2023-04-20T06:18:16.628Z,9.60
2023-04-20T06:19:16.927Z,10.20
2023-04-20T06:20:16.640Z,9.80
2023-04-20T06:21:16.589Z,10.60
2023-04-20T06:22:16.586Z,9.10
2023-04-20T06:23:16.572Z,12.30
2023-04-20T06:24:16.564Z,9.50
2023-04-20T06:25:16.549Z,8.60
2023-04-20T06:26:16.528Z,9.30
2023-04-20T06:27:16.507Z,11.60
2023-04-20T06:28:16.497Z,8.70
2023-04-20T06:29:16.558Z,9.40
2023-04-20T06:30:16.491Z,11.50
2023-04-20T06:31:16.479Z,10.70
2023-04-20T06:32:16.438Z,9.90
2023-04-20T06:33:16.431Z,11.20
2023-04-20T06:34:16.411Z,9.70
2023-04-20T06:35:16.472Z,9.20
2023-04-20T06:36:16.385Z,9.70
2023-04-20T06:37:16.373Z,9.10
2023-04-20T06:38:16.365Z,8.80
2023-04-20T06:39:16.499Z,10.60
2023-04-20T06:40:16.488Z,9.90
2023-04-20T06:41:16.325Z,9.70
2023-04-20T06:42:16.317Z,8.90
2023-04-20T06:43:16.298Z,8.00
2023-04-20T06:44:16.277Z,10.60
2023-04-20T06:45:16.281Z,9.00
2023-04-20T06:46:16.275Z,9.00
2023-04-20T06:47:16.246Z,8.90
2023-04-20T06:48:30.816Z,9.30
2023-04-20T06:49:17.593Z,8.60
2023-04-20T06:50:16.217Z,8.50
2023-04-20T06:51:16.247Z,9.40
2023-04-20T06:52:16.182Z,9.60
2023-04-20T06:53:16.171Z,9.30
2023-04-20T06:54:16.168Z,8.50
2023-04-20T06:55:16.185Z,9.40
2023-04-20T06:56:16.125Z,9.60
2023-04-20T06:57:16.111Z,9.10
2023-04-20T06:58:16.096Z,8.50
2023-04-20T06:59:16.420Z,8.40
2023-04-20T07:00:16.083Z,8.90
2023-04-20T07:01:16.075Z,8.40
2023-04-20T07:02:16.194Z,8.20
2023-04-20T07:03:16.282Z,7.50
2023-04-20T07:04:16.083Z,7.20
2023-04-20T07:05:16.045Z,7.70
2023-04-20T07:06:15.989Z,7.50
2023-04-20T07:07:16.001Z,7.40
2023-04-20T07:08:16.291Z,7.50
2023-04-20T07:09:16.148Z,7.30
2023-04-20T07:10:15.980Z,7.30
2023-04-20T07:11:15.947Z,7.20
2023-04-20T07:12:15.912Z,8.20
2023-04-20T07:13:15.901Z,7.60
2023-04-20T07:14:15.903Z,10.20
2023-04-20T07:15:15.867Z,8.10
2023-04-20T07:16:15.882Z,6.90
2023-04-20T07:17:15.846Z,7.90
2023-04-20T07:18:15.840Z,7.60
2023-04-20T07:19:16.077Z,8.00
2023-04-20T07:20:15.834Z,7.60
2023-04-20T07:21:15.794Z,8.00
2023-04-20T07:22:15.785Z,6.80
2023-04-20T07:23:15.796Z,6.90
2023-04-20T07:24:15.761Z,7.40
2023-04-20T07:25:15.745Z,8.80
2023-04-20T07:26:15.746Z,7.00
2023-04-20T07:27:15.719Z,6.90
2023-04-20T07:28:15.697Z,6.70
2023-04-20T07:29:15.929Z,6.90
2023-04-20T07:30:15.672Z,7.40
2023-04-20T07:31:15.850Z,7.70
2023-04-20T07:32:15.754Z,9.60
2023-04-20T07:33:15.631Z,6.10
2023-04-20T07:34:15.736Z,5.80
2023-04-20T07:35:15.633Z,6.00
2023-04-20T07:36:15.605Z,5.20
2023-04-20T07:37:15.594Z,5.00
2023-04-20T07:38:15.570Z,5.00
2023-04-20T07:39:15.866Z,5.30
2023-04-20T07:40:15.573Z,5.10
2023-04-20T07:41:15.532Z,5.10
2023-04-20T07:42:15.551Z,4.70
2023-04-20T07:43:15.501Z,5.10
2023-04-20T07:44:15.501Z,6.90
2023-04-20T07:45:15.501Z,4.90
2023-04-20T07:46:15.507Z,4.60
2023-04-20T07:47:15.475Z,4.80
2023-04-20T07:48:15.451Z,5.70
2023-04-20T07:49:15.625Z,5.30
2023-04-20T07:50:15.431Z,5.50
2023-04-20T07:51:15.407Z,5.60
2023-04-20T07:52:17.222Z,5.10
2023-04-20T07:53:15.373Z,5.00
2023-04-20T07:54:15.358Z,5.00
2023-04-20T07:55:15.385Z,5.20
2023-04-20T07:56:15.335Z,4.80
2023-04-20T07:57:15.362Z,5.20
2023-04-20T07:58:15.304Z,5.10
2023-04-20T07:59:15.421Z,4.70
2023-04-20T08:00:15.299Z,4.80
2023-04-20T08:01:15.262Z,4.60
2023-04-20T08:02:15.291Z,5.70
2023-04-20T08:03:15.538Z,4.40
2023-04-20T08:04:15.502Z,4.40
2023-04-20T08:05:15.539Z,4.30
2023-04-20T08:06:15.200Z,4.80
2023-04-20T08:07:15.184Z,4.40
2023-04-20T08:08:15.176Z,4.60
2023-04-20T08:09:15.399Z,4.30
2023-04-20T08:10:15.165Z,4.50
2023-04-20T08:11:15.150Z,4.30
2023-04-20T08:12:15.122Z,5.80
2023-04-20T08:13:15.105Z,5.90
2023-04-20T08:14:15.174Z,4.20
2023-04-20T08:15:15.096Z,4.90
2023-04-20T08:16:15.111Z,4.90
2023-04-20T08:17:15.049Z,4.60
2023-04-20T08:18:15.037Z,4.70
2023-04-20T08:20:15.026Z,5.10
2023-04-20T08:21:14.996Z,4.50
2023-04-20T08:22:14.989Z,4.40
2023-04-20T08:23:14.980Z,5.30
2023-04-20T08:24:14.958Z,6.00
2023-04-20T08:25:14.977Z,4.90
2023-04-20T08:26:14.957Z,4.90
2023-04-20T08:27:14.949Z,4.40
2023-04-20T08:28:29.423Z,4.60
2023-04-20T08:29:14.894Z,5.40
2023-04-20T08:30:14.882Z,5.70
2023-04-20T08:31:14.898Z,3.90
2023-04-20T08:32:14.851Z,4.60
2023-04-20T08:33:14.871Z,4.20
2023-04-20T08:34:14.833Z,4.30
2023-04-20T08:35:14.880Z,4.70
2023-04-20T08:36:14.815Z,4.30
2023-04-20T08:37:14.790Z,4.10
2023-04-20T08:38:18.078Z,4.10
2023-04-20T08:39:14.759Z,4.30
2023-04-20T08:40:14.749Z,4.50
2023-04-20T08:41:14.746Z,4.70
2023-04-20T08:42:14.726Z,5.10
2023-04-20T08:43:14.823Z,6.30
2023-04-20T08:44:14.778Z,4.70
2023-04-20T08:45:14.680Z,4.50
2023-04-20T08:46:14.713Z,4.40
2023-04-20T08:47:14.676Z,4.20
2023-04-20T08:48:14.643Z,5.10
2023-04-20T08:49:14.629Z,4.00
2023-04-20T08:50:14.614Z,4.50
2023-04-20T08:51:14.628Z,4.30
2023-04-20T08:52:14.590Z,4.30
2023-04-20T08:53:14.578Z,3.60
2023-04-20T08:54:14.683Z,3.80
2023-04-20T08:55:14.551Z,4.30
2023-04-20T08:56:14.556Z,4.30
2023-04-20T08:57:14.528Z,3.80
2023-04-20T08:58:14.561Z,4.90
2023-04-20T08:59:14.563Z,5.40
2023-04-20T09:00:14.515Z,4.00
2023-04-20T09:01:17.734Z,5.80
2023-04-20T09:02:14.605Z,4.60
2023-04-20T09:03:14.772Z,5.80
2023-04-20T09:04:14.751Z,4.50
2023-04-20T09:05:14.446Z,4.90
2023-04-20T09:06:14.484Z,4.40
2023-04-20T09:07:14.433Z,4.20
2023-04-20T09:08:14.378Z,4.20
2023-04-20T09:09:14.373Z,4.30
2023-04-20T09:10:14.375Z,4.10
2023-04-20T09:11:14.361Z,4.10
2023-04-20T09:12:14.342Z,4.60
2023-04-20T09:13:14.308Z,4.40
2023-04-20T09:14:14.361Z,4.80
2023-04-20T09:15:14.310Z,5.80
2023-04-20T09:16:14.312Z,4.00
2023-04-20T09:17:14.393Z,3.80
2023-04-20T09:18:14.284Z,3.70
2023-04-20T09:19:14.234Z,4.00
2023-04-20T09:20:14.246Z,4.30
2023-04-20T09:21:14.234Z,4.20
2023-04-20T09:22:14.196Z,3.70
2023-04-20T09:23:14.186Z,4.30
2023-04-20T09:24:14.308Z,3.90
2023-04-20T09:25:14.156Z,4.30
2023-04-20T09:26:14.150Z,4.10
2023-04-20T09:27:14.146Z,4.70
2023-04-20T09:28:14.145Z,3.80
2023-04-20T09:29:14.096Z,3.80
2023-04-20T09:30:14.096Z,4.10
2023-04-20T09:31:15.127Z,3.90
2023-04-20T09:32:14.117Z,3.30
2023-04-20T09:33:14.046Z,3.80
2023-04-20T09:34:14.066Z,4.00
2023-04-20T09:35:14.016Z,5.00
2023-04-20T09:36:14.007Z,4.70
2023-04-20T09:37:14.010Z,3.90
2023-04-20T09:38:13.978Z,4.70
2023-04-20T09:39:13.965Z,3.90
2023-04-20T09:40:13.953Z,4.40
2023-04-20T09:41:13.952Z,3.40
2023-04-20T09:42:13.960Z,3.70
2023-04-20T09:43:15.392Z,3.30
2023-04-20T09:44:13.911Z,3.30
2023-04-20T09:45:13.918Z,3.70
2023-04-20T09:46:13.940Z,5.00
2023-04-20T09:47:13.884Z,3.70
2023-04-20T09:48:13.848Z,3.90
2023-04-20T09:49:13.874Z,4.10
2023-04-20T09:50:24.716Z,4.00
2023-04-20T09:51:13.818Z,3.60
2023-04-20T09:52:13.809Z,5.20
2023-04-20T09:53:13.794Z,3.80
2023-04-20T09:54:13.785Z,3.70
2023-04-20T09:55:13.756Z,4.10
2023-04-20T09:56:13.764Z,3.90
2023-04-20T09:57:13.744Z,3.40
2023-04-20T09:58:13.728Z,4.40
2023-04-20T09:59:13.707Z,3.40
2023-04-20T10:00:13.692Z,3.50
2023-04-20T10:01:13.756Z,4.00
2023-04-20T10:02:13.812Z,3.50
2023-04-20T10:03:13.991Z,3.80
2023-04-20T10:04:13.785Z,3.30
2023-04-20T10:05:13.629Z,3.50
2023-04-20T10:06:13.628Z,3.60
2023-04-20T10:07:13.605Z,5.00
2023-04-20T10:08:13.633Z,3.40
2023-04-20T10:09:13.580Z,3.30
2023-04-20T10:10:13.581Z,4.20
2023-04-20T10:11:13.582Z,4.40
2023-04-20T10:12:13.535Z,3.60
2023-04-20T10:13:13.533Z,3.40
2023-04-20T10:14:13.513Z,3.80
2023-04-20T10:15:13.497Z,3.70
2023-04-20T10:16:13.528Z,4.10
2023-04-20T10:17:13.529Z,3.60
2023-04-20T10:18:13.545Z,4.40
2023-04-20T10:19:13.483Z,4.50
2023-04-20T10:20:13.436Z,3.40
2023-04-20T10:21:13.418Z,3.60
2023-04-20T10:22:13.437Z,3.90
2023-04-20T10:23:13.401Z,3.50
2023-04-20T10:24:13.379Z,3.50
2023-04-20T10:25:13.359Z,3.40
2023-04-20T10:26:13.352Z,3.60
2023-04-20T10:27:13.364Z,3.20
2023-04-20T10:28:13.331Z,3.10
2023-04-20T10:29:13.320Z,3.40
2023-04-20T10:30:13.301Z,3.50
2023-04-20T10:31:13.548Z,3.80
2023-04-20T10:32:13.297Z,3.40
2023-04-20T10:33:13.533Z,3.20
2023-04-20T10:34:13.253Z,3.20
2023-04-20T10:35:13.272Z,3.40
2023-04-20T10:36:13.226Z,3.30
2023-04-20T10:37:13.245Z,3.10
2023-04-20T10:38:13.204Z,3.20
2023-04-20T10:39:13.181Z,3.10
2023-04-20T10:40:13.177Z,3.70
2023-04-20T10:41:13.183Z,4.50
2023-04-20T10:42:13.467Z,7.20
2023-04-20T10:43:13.132Z,4.50
2023-04-20T10:44:13.117Z,4.00
2023-04-20T10:45:13.106Z,4.00
2023-04-20T10:46:13.124Z,4.10
2023-04-20T10:47:13.100Z,3.60
2023-04-20T10:48:13.070Z,3.70
2023-04-20T10:49:13.051Z,4.10
2023-04-20T10:50:13.051Z,4.20
2023-04-20T10:51:13.067Z,4.30
2023-04-20T10:52:13.047Z,5.00
2023-04-20T10:53:12.993Z,4.40
2023-04-20T10:54:12.984Z,4.00
2023-04-20T10:55:12.967Z,4.70
2023-04-20T10:56:12.971Z,4.20
2023-04-20T10:57:12.973Z,4.50
2023-04-20T10:58:12.928Z,3.70
2023-04-20T10:59:13.477Z,4.00
2023-04-20T11:00:12.900Z,4.00
2023-04-20T11:01:12.888Z,3.90
2023-04-20T11:02:12.982Z,4.40
2023-04-20T11:03:12.958Z,4.10
2023-04-20T11:04:12.879Z,4.00
2023-04-20T11:05:13.010Z,4.10
2023-04-20T11:06:12.867Z,6.50
2023-04-20T11:07:12.968Z,4.10
2023-04-20T11:08:12.797Z,4.50
2023-04-20T11:09:12.781Z,5.40
2023-04-20T11:10:12.769Z,4.00
2023-04-20T11:11:12.762Z,4.10
2023-04-20T11:12:12.770Z,3.90
2023-04-20T11:13:12.742Z,4.90
2023-04-20T11:14:12.728Z,4.50
2023-04-20T11:15:12.705Z,4.20
2023-04-20T11:16:12.740Z,4.00
2023-04-20T11:17:12.730Z,4.90
2023-04-20T11:18:12.723Z,5.90
2023-04-20T11:19:12.652Z,4.80
2023-04-20T11:20:12.676Z,4.80
2023-04-20T11:21:12.635Z,5.20
2023-04-20T11:22:12.611Z,4.40
2023-04-20T11:23:12.643Z,6.00
2023-04-20T11:24:12.587Z,4.20
2023-04-20T11:25:12.781Z,4.20
2023-04-20T11:26:12.558Z,3.90
2023-04-20T11:27:12.539Z,4.40
2023-04-20T11:28:12.554Z,4.10
2023-04-20T11:29:12.538Z,5.20
2023-04-20T11:30:12.546Z,4.80
2023-04-20T11:31:12.557Z,3.50
2023-04-20T11:32:12.590Z,3.90
2023-04-20T11:33:12.791Z,7.40
2023-04-20T11:34:12.448Z,4.50
2023-04-20T11:35:12.433Z,3.90
2023-04-20T11:36:12.419Z,5.20
2023-04-20T11:37:12.422Z,4.70
2023-04-20T11:38:12.407Z,3.50
2023-04-20T11:39:12.457Z,3.60
2023-04-20T11:40:12.378Z,3.70
2023-04-20T11:41:12.359Z,4.30
2023-04-20T11:42:12.342Z,3.50
2023-04-20T11:43:12.347Z,3.60
2023-04-20T11:44:12.324Z,3.30
2023-04-20T11:45:12.302Z,3.40
2023-04-20T11:46:12.304Z,3.60
2023-04-20T11:47:12.282Z,3.90
2023-04-20T11:48:12.276Z,4.00
2023-04-20T11:49:12.260Z,3.60
2023-04-20T11:50:12.240Z,3.50
2023-04-20T11:51:12.227Z,3.60
2023-04-20T11:52:12.206Z,3.60
2023-04-20T11:53:12.211Z,3.90
2023-04-20T11:54:12.180Z,4.30
2023-04-20T11:55:12.240Z,3.80
2023-04-20T11:56:12.163Z,3.80
2023-04-20T11:57:12.183Z,5.10
2023-04-20T11:58:12.155Z,3.80
2023-04-20T11:59:12.114Z,4.10
2023-04-20T12:00:12.105Z,3.40
2023-04-20T12:01:12.092Z,5.20
2023-04-20T12:02:12.174Z,5.00
2023-04-20T12:03:12.205Z,5.40
2023-04-20T12:04:12.231Z,4.30
2023-04-20T12:05:12.202Z,3.30
2023-04-20T12:06:12.018Z,5.10
2023-04-20T12:07:12.007Z,5.30
2023-04-20T12:08:12.006Z,4.10
2023-04-20T12:09:11.984Z,4.10
2023-04-20T12:10:11.970Z,3.90
2023-04-20T12:11:11.984Z,4.00
2023-04-20T12:12:11.950Z,3.80
2023-04-20T12:13:11.945Z,3.90
2023-04-20T12:14:11.934Z,4.40
2023-04-20T12:15:11.899Z,3.90
2023-04-20T12:16:12.061Z,4.00
2023-04-20T12:17:11.881Z,3.90
2023-04-20T12:18:11.935Z,4.90
2023-04-20T12:19:11.847Z,4.40
2023-04-20T12:20:11.841Z,4.10
2023-04-20T12:21:11.830Z,3.90
2023-04-20T12:22:11.807Z,4.00
2023-04-20T12:23:11.838Z,4.10
2023-04-20T12:24:11.781Z,6.20
2023-04-20T12:25:11.768Z,3.70
2023-04-20T12:26:11.772Z,3.90
2023-04-20T12:27:11.766Z,3.40
2023-04-20T12:28:11.741Z,3.60
2023-04-20T12:29:11.715Z,4.60
2023-04-20T12:30:11.714Z,3.30
2023-04-20T12:31:11.766Z,3.70
2023-04-20T12:32:11.673Z,3.40
2023-04-20T12:33:11.690Z,5.30
2023-04-20T12:34:11.644Z,4.00
2023-04-20T12:35:11.635Z,4.50
2023-04-20T12:36:11.625Z,4.40
2023-04-20T12:37:11.610Z,4.20
2023-04-20T12:38:13.988Z,4.50
2023-04-20T12:39:11.594Z,4.10
2023-04-20T12:40:11.604Z,4.80
2023-04-20T12:41:11.552Z,4.40
2023-04-20T12:42:11.585Z,5.10
2023-04-20T12:43:11.550Z,4.20
2023-04-20T12:44:11.659Z,4.90
2023-04-20T12:45:11.529Z,4.60
2023-04-20T12:46:11.539Z,5.40
2023-04-20T12:47:11.498Z,4.30
2023-04-20T12:48:11.502Z,4.30
2023-04-20T12:49:11.478Z,5.60
2023-04-20T12:50:11.494Z,5.90
2023-04-20T12:51:11.419Z,4.60
2023-04-20T12:52:11.416Z,4.70
2023-04-20T12:53:11.399Z,4.50
2023-04-20T12:54:11.407Z,4.60
2023-04-20T12:55:11.387Z,4.00
2023-04-20T12:56:11.368Z,3.60
2023-04-20T12:57:11.460Z,3.70
2023-04-20T12:58:11.342Z,3.60
2023-04-20T12:59:11.353Z,3.80
2023-04-20T13:00:12.585Z,4.20
2023-04-20T13:01:11.499Z,4.30
2023-04-20T13:02:11.402Z,4.70
2023-04-20T13:03:11.406Z,4.10
2023-04-20T13:04:11.552Z,3.70
2023-04-20T13:05:11.236Z,4.50
2023-04-20T13:06:13.592Z,5.20
2023-04-20T13:07:11.212Z,3.50
2023-04-20T13:08:11.195Z,4.80
2023-04-20T13:09:11.198Z,4.30
2023-04-20T13:10:11.195Z,4.20
2023-04-20T13:11:11.162Z,3.70
2023-04-20T13:12:11.196Z,3.60
2023-04-20T13:13:11.136Z,4.10
2023-04-20T13:14:11.129Z,4.90
2023-04-20T13:15:11.129Z,3.50
2023-04-20T13:16:11.172Z,3.90